createdAt,value
2019-02-12T00:00:21.426Z,98
2019-02-12T00:01:23.545Z,98
2019-02-12T00:02:25.667Z,98
2019-02-12T00:03:27.786Z,98
2019-02-12T00:04:30.291Z,98
2019-02-12T00:05:32.415Z,98
2019-02-12T00:06:34.544Z,98
2019-02-12T00:07:36.645Z,98
2019-02-12T00:08:39.051Z,98
2019-02-12T00:09:41.791Z,98
2019-02-12T00:10:43.908Z,98
2019-02-12T00:11:47.040Z,98
2019-02-12T00:12:49.442Z,98
2019-02-12T00:13:51.899Z,98
2019-02-12T00:14:54.704Z,98
2019-02-12T00:15:57.276Z,98
2019-02-12T00:16:59.673Z,98
2019-02-12T00:18:02.169Z,98
2019-02-12T00:19:04.296Z,99
2019-02-12T00:20:06.739Z,99
2019-02-12T00:21:10.348Z,99
2019-02-12T00:22:12.760Z,99
2019-02-12T00:23:15.479Z,99
2019-02-12T00:24:17.967Z,99
2019-02-12T00:25:20.090Z,99
2019-02-12T00:26:22.488Z,99
2019-02-12T00:27:24.598Z,99
2019-02-12T00:28:27.126Z,100
2019-02-12T00:29:29.538Z,100
2019-02-12T00:30:31.652Z,100
2019-02-12T00:31:33.745Z,100
2019-02-12T00:32:35.898Z,100
2019-02-12T00:33:38.026Z,100
2019-02-12T00:34:40.429Z,100
2019-02-12T00:35:42.546Z,100
2019-02-12T00:36:44.657Z,100
2019-02-12T00:37:46.766Z,100
2019-02-12T00:38:49.805Z,100
2019-02-12T00:39:52.499Z,100
2019-02-12T00:40:54.890Z,100
2019-02-12T00:41:57.059Z,100
2019-02-12T00:42:59.172Z,100
2019-02-12T00:44:01.555Z,100
2019-02-12T00:45:04.282Z,100
2019-02-12T00:46:06.697Z,99
2019-02-12T00:47:08.803Z,100
2019-02-12T00:48:10.922Z,100
2019-02-12T00:49:13.051Z,100
2019-02-12T00:50:15.156Z,100
2019-02-12T00:51:18.882Z,99
2019-02-12T00:52:21.010Z,100
2019-02-12T00:53:23.185Z,99
2019-02-12T00:54:26.041Z,99
2019-02-12T00:55:28.216Z,99
2019-02-12T00:56:30.738Z,99
2019-02-12T00:57:32.837Z,99
2019-02-12T00:58:35.233Z,99
2019-02-12T00:59:37.635Z,99
2019-02-12T01:00:39.782Z,99
2019-02-12T01:01:42.229Z,99
2019-02-12T01:02:44.984Z,99
2019-02-12T01:03:47.118Z,99
2019-02-12T01:04:49.944Z,99
2019-02-12T01:05:52.083Z,99
2019-02-12T01:06:54.206Z,99
2019-02-12T01:07:56.363Z,99
2019-02-12T01:08:58.487Z,99
2019-02-12T01:10:00.648Z,99
2019-02-12T01:11:02.749Z,99
2019-02-12T01:12:04.880Z,99
2019-02-12T01:13:06.997Z,99
2019-02-12T01:14:09.384Z,99
2019-02-12T01:15:11.499Z,99
2019-02-12T01:16:13.899Z,99
2019-02-12T01:17:15.998Z,99
2019-02-12T01:18:18.413Z,99
2019-02-12T01:19:20.523Z,99
2019-02-12T01:20:22.922Z,99
2019-02-12T01:21:27.182Z,99
2019-02-12T01:22:29.594Z,99
2019-02-12T01:23:31.705Z,99
2019-02-12T01:24:34.107Z,99
2019-02-12T01:25:36.521Z,99
2019-02-12T01:26:38.618Z,99
2019-02-12T01:27:40.739Z,99
2019-02-12T01:28:42.857Z,99
2019-02-12T01:29:44.970Z,98
2019-02-12T01:30:47.368Z,98
2019-02-12T01:31:49.896Z,99
2019-02-12T01:32:52.301Z,98
2019-02-12T01:33:54.410Z,98
2019-02-12T01:34:57.605Z,99
2019-02-12T01:35:59.710Z,99
2019-02-12T01:37:01.827Z,98
2019-02-12T01:38:04.269Z,99
2019-02-12T01:39:07.054Z,99
2019-02-12T01:40:09.175Z,99
2019-02-12T01:41:11.293Z,99
2019-02-12T01:42:13.686Z,99
2019-02-12T01:43:15.803Z,98
2019-02-12T01:44:17.925Z,98
2019-02-12T01:45:20.062Z,98
2019-02-12T01:46:22.188Z,98
2019-02-12T01:47:24.289Z,98
2019-02-12T01:48:26.801Z,98
2019-02-12T01:49:28.920Z,98
2019-02-12T01:50:31.021Z,98
2019-02-12T01:51:36.807Z,98
2019-02-12T01:52:38.920Z,98
2019-02-12T01:53:41.999Z,98
2019-02-12T01:54:44.389Z,98
2019-02-12T01:55:46.517Z,98
2019-02-12T01:56:48.620Z,98
2019-02-12T01:57:51.041Z,98
2019-02-12T01:58:53.159Z,98
2019-02-12T01:59:55.258Z,98
2019-02-12T02:00:57.664Z,99
2019-02-12T02:02:00.067Z,99
2019-02-12T02:03:02.578Z,99
2019-02-12T02:04:04.984Z,99
2019-02-12T02:05:07.118Z,99
2019-02-12T02:06:09.230Z,99
2019-02-12T02:07:11.619Z,99
2019-02-12T02:08:13.752Z,99
2019-02-12T02:09:16.151Z,99
2019-02-12T02:10:18.270Z,99
2019-02-12T02:11:20.678Z,99
2019-02-12T02:12:22.797Z,99
2019-02-12T02:13:24.896Z,99
2019-02-12T02:14:27.006Z,99
2019-02-12T02:15:29.405Z,99
2019-02-12T02:16:31.522Z,99
2019-02-12T02:17:34.044Z,99
2019-02-12T02:18:36.150Z,99
2019-02-12T02:19:38.255Z,99
2019-02-12T02:20:40.776Z,99
2019-02-12T02:21:45.822Z,99
2019-02-12T02:22:47.926Z,98
2019-02-12T02:23:50.346Z,98
2019-02-12T02:24:53.113Z,98
2019-02-12T02:25:55.231Z,98
2019-02-12T02:26:57.349Z,99
2019-02-12T02:27:59.476Z,99
2019-02-12T02:29:01.577Z,98
2019-02-12T02:30:04.026Z,98
2019-02-12T02:31:06.186Z,98
2019-02-12T02:32:08.878Z,98
2019-02-12T02:33:11.385Z,98
2019-02-12T02:34:13.501Z,98
2019-02-12T02:35:16.384Z,98
2019-02-12T02:36:19.067Z,98
2019-02-12T02:37:21.201Z,98
2019-02-12T02:38:23.887Z,98
2019-02-12T02:39:26.018Z,97
2019-02-12T02:40:28.578Z,97
2019-02-12T02:41:31.724Z,97
2019-02-12T02:42:33.867Z,97
2019-02-12T02:43:36.064Z,97
2019-02-12T02:44:38.161Z,97
2019-02-12T02:45:40.283Z,97
2019-02-12T02:46:42.732Z,96
2019-02-12T02:47:44.853Z,97
2019-02-12T02:48:47.698Z,97
2019-02-12T02:49:49.847Z,96
2019-02-12T02:50:51.965Z,96
2019-02-12T02:51:55.098Z,96
2019-02-12T02:52:57.231Z,96
2019-02-12T02:53:59.626Z,96
2019-02-12T02:55:02.187Z,96
2019-02-12T02:56:04.327Z,96
2019-02-12T02:57:06.468Z,96
2019-02-12T02:58:09.282Z,96
2019-02-12T02:59:11.748Z,96
2019-02-12T03:00:13.869Z,95
2019-02-12T03:01:16.674Z,95
2019-02-12T03:02:18.795Z,95
2019-02-12T03:03:20.973Z,95
2019-02-12T03:04:23.393Z,95
2019-02-12T03:05:25.511Z,95
2019-02-12T03:06:27.648Z,95
2019-02-12T03:07:30.180Z,95
2019-02-12T03:08:32.686Z,94
2019-02-12T03:09:34.794Z,94
2019-02-12T03:10:36.958Z,95
2019-02-12T03:11:39.752Z,95
2019-02-12T03:12:42.267Z,95
2019-02-12T03:13:44.674Z,96
2019-02-12T03:14:46.838Z,96
2019-02-12T03:15:49.556Z,96
2019-02-12T03:16:51.673Z,96
2019-02-12T03:17:54.167Z,96
2019-02-12T03:18:56.599Z,96
2019-02-12T03:19:59.017Z,96
2019-02-12T03:21:01.807Z,96
2019-02-12T03:22:05.157Z,96
2019-02-12T03:23:07.269Z,96
2019-02-12T03:24:09.661Z,96
2019-02-12T03:25:12.197Z,96
2019-02-12T03:26:14.637Z,96
2019-02-12T03:27:17.026Z,95
2019-02-12T03:28:19.435Z,95
2019-02-12T03:29:22.447Z,95
2019-02-12T03:30:25.234Z,95
2019-02-12T03:31:27.561Z,95
2019-02-12T03:32:31.000Z,94
2019-02-12T03:33:33.435Z,93
2019-02-12T03:34:35.556Z,93
2019-02-12T03:35:37.694Z,94
2019-02-12T03:36:39.838Z,95
2019-02-12T03:37:42.239Z,94
2019-02-12T03:38:44.364Z,94
2019-02-12T03:39:46.755Z,94
2019-02-12T03:40:49.543Z,94
2019-02-12T03:41:52.277Z,94
2019-02-12T03:42:54.381Z,93
2019-02-12T03:43:56.822Z,93
2019-02-12T03:44:58.934Z,93
2019-02-12T03:46:01.445Z,93
2019-02-12T03:47:03.582Z,93
2019-02-12T03:48:05.689Z,93
2019-02-12T03:49:08.694Z,93
2019-02-12T03:50:10.799Z,94
2019-02-12T03:51:12.977Z,94
2019-02-12T03:52:15.788Z,94
2019-02-12T03:53:17.913Z,93
2019-02-12T03:54:20.023Z,93
2019-02-12T03:55:22.452Z,93
2019-02-12T03:56:24.849Z,93
2019-02-12T03:57:26.959Z,93
2019-02-12T03:58:29.075Z,93
2019-02-12T03:59:31.205Z,93
2019-02-12T04:00:33.309Z,92
2019-02-12T04:01:36.173Z,93
2019-02-12T04:02:38.338Z,93
2019-02-12T04:03:40.456Z,93
2019-02-12T04:04:42.976Z,93
2019-02-12T04:05:45.102Z,93
2019-02-12T04:06:47.242Z,93
2019-02-12T04:07:50.039Z,93
2019-02-12T04:08:52.165Z,93
2019-02-12T04:09:54.654Z,93
2019-02-12T04:10:56.778Z,92
2019-02-12T04:11:59.300Z,92
2019-02-12T04:13:01.404Z,92
2019-02-12T04:14:03.532Z,92
2019-02-12T04:15:05.651Z,92
2019-02-12T04:16:07.880Z,91
2019-02-12T04:17:10.006Z,92
2019-02-12T04:18:12.137Z,92
2019-02-12T04:19:14.266Z,92
2019-02-12T04:20:16.741Z,92
2019-02-12T04:21:18.858Z,92
2019-02-12T04:22:24.059Z,92
2019-02-12T04:23:26.490Z,91
2019-02-12T04:24:28.598Z,91
2019-02-12T04:25:30.713Z,91
2019-02-12T04:26:33.120Z,91
2019-02-12T04:27:35.292Z,92
2019-02-12T04:28:37.433Z,91
2019-02-12T04:29:39.588Z,91
2019-02-12T04:30:41.992Z,91
2019-02-12T04:31:44.118Z,91
2019-02-12T04:32:46.244Z,92
2019-02-12T04:33:48.735Z,92
2019-02-12T04:34:50.866Z,92
2019-02-12T04:35:52.992Z,92
2019-02-12T04:36:55.457Z,92
2019-02-12T04:37:58.558Z,91
2019-02-12T04:39:00.672Z,91
2019-02-12T04:40:03.202Z,92
2019-02-12T04:41:05.616Z,92
2019-02-12T04:42:07.758Z,92
2019-02-12T04:43:10.139Z,92
2019-02-12T04:44:12.637Z,92
2019-02-12T04:45:15.166Z,92
2019-02-12T04:46:17.578Z,92
2019-02-12T04:47:19.718Z,92
2019-02-12T04:48:22.425Z,92
2019-02-12T04:49:24.549Z,91
2019-02-12T04:50:26.655Z,92
2019-02-12T04:51:29.523Z,92
2019-02-12T04:52:33.143Z,92
2019-02-12T04:53:35.274Z,92
2019-02-12T04:54:37.409Z,92
2019-02-12T04:55:39.515Z,92
2019-02-12T04:56:41.641Z,92
2019-02-12T04:57:43.765Z,92
2019-02-12T04:58:46.278Z,92
2019-02-12T04:59:48.388Z,92
2019-02-12T05:00:50.525Z,92
2019-02-12T05:01:52.644Z,92
2019-02-12T05:02:54.769Z,92
2019-02-12T05:03:57.724Z,92
2019-02-12T05:04:59.841Z,92
2019-02-12T05:06:02.369Z,92
2019-02-12T05:07:04.906Z,92
2019-02-12T05:08:07.054Z,92
2019-02-12T05:09:09.185Z,92
2019-02-12T05:10:12.264Z,92
2019-02-12T05:11:14.361Z,92
2019-02-12T05:12:16.537Z,93
2019-02-12T05:13:18.654Z,93
2019-02-12T05:14:20.782Z,92
2019-02-12T05:15:23.254Z,92
2019-02-12T05:16:25.958Z,93
2019-02-12T05:17:28.082Z,93
2019-02-12T05:18:30.237Z,93
2019-02-12T05:19:32.370Z,93
2019-02-12T05:20:35.174Z,92
2019-02-12T05:21:37.299Z,93
2019-02-12T05:22:45.009Z,93
2019-02-12T05:23:47.863Z,93
2019-02-12T05:24:50.656Z,93
2019-02-12T05:25:52.782Z,93
2019-02-12T05:26:54.902Z,93
2019-02-12T05:27:57.487Z,93
2019-02-12T05:28:59.615Z,93
2019-02-12T05:30:02.122Z,94
2019-02-12T05:31:04.557Z,94
2019-02-12T05:32:06.679Z,94
2019-02-12T05:33:09.100Z,94
2019-02-12T05:34:11.215Z,94
2019-02-12T05:35:13.343Z,94
2019-02-12T05:36:15.750Z,94
2019-02-12T05:37:17.881Z,94
2019-02-12T05:38:20.005Z,94
2019-02-12T05:39:22.544Z,94
2019-02-12T05:40:25.310Z,94
2019-02-12T05:41:27.710Z,94
2019-02-12T05:42:30.155Z,94
2019-02-12T05:43:32.296Z,94
2019-02-12T05:44:34.749Z,95
2019-02-12T05:45:37.198Z,95
2019-02-12T05:46:39.989Z,95
2019-02-12T05:47:42.827Z,95
2019-02-12T05:48:45.341Z,95
2019-02-12T05:49:47.498Z,96
2019-02-12T05:50:50.337Z,96
2019-02-12T05:51:52.460Z,96
2019-02-12T05:52:56.435Z,96
2019-02-12T05:53:58.571Z,96
2019-02-12T05:55:01.105Z,96
2019-02-12T05:56:03.255Z,97
2019-02-12T05:57:05.735Z,97
2019-02-12T05:58:08.167Z,97
2019-02-12T05:59:10.309Z,97
2019-02-12T06:00:12.469Z,97
2019-02-12T06:01:14.874Z,97
2019-02-12T06:02:17.582Z,97
2019-02-12T06:03:19.716Z,97
2019-02-12T06:04:21.829Z,98
2019-02-12T06:05:24.350Z,98
2019-02-12T06:06:27.064Z,98
2019-02-12T06:07:29.550Z,98
2019-02-12T06:08:32.389Z,98
2019-02-12T06:09:34.521Z,98
2019-02-12T06:10:36.933Z,99
2019-02-12T06:11:39.066Z,99
2019-02-12T06:12:41.210Z,99
2019-02-12T06:13:43.360Z,99
2019-02-12T06:14:45.789Z,99
2019-02-12T06:15:48.401Z,99
2019-02-12T06:16:50.562Z,99
2019-02-12T06:17:52.980Z,99
2019-02-12T06:18:55.103Z,99
2019-02-12T06:19:57.234Z,99
2019-02-12T06:20:59.648Z,99
2019-02-12T06:22:01.799Z,99
2019-02-12T06:23:05.718Z,99
2019-02-12T06:24:08.115Z,100
2019-02-12T06:25:11.187Z,100
2019-02-12T06:26:14.010Z,100
2019-02-12T06:27:16.700Z,100
2019-02-12T06:28:18.822Z,100
2019-02-12T06:29:20.928Z,100
2019-02-12T06:30:23.341Z,100
2019-02-12T06:31:26.161Z,100
2019-02-12T06:32:28.867Z,100
2019-02-12T06:33:31.325Z,100
2019-02-12T06:34:33.710Z,100
2019-02-12T06:35:35.845Z,100
2019-02-12T06:36:38.352Z,100
2019-02-12T06:37:40.459Z,100
2019-02-12T06:38:42.580Z,100
2019-02-12T06:39:45.131Z,100
2019-02-12T06:40:47.646Z,100
2019-02-12T06:41:50.064Z,100
2019-02-12T06:42:52.781Z,100
2019-02-12T06:43:55.301Z,100
2019-02-12T06:44:58.112Z,100
2019-02-12T06:46:00.653Z,100
2019-02-12T06:47:02.772Z,100
2019-02-12T06:48:05.187Z,100
2019-02-12T06:49:08.169Z,100
2019-02-12T06:50:10.572Z,100
2019-02-12T06:51:12.677Z,100
2019-02-12T06:52:14.800Z,100
2019-02-12T06:53:17.300Z,100
2019-02-12T06:54:19.430Z,100
2019-02-12T06:55:22.210Z,100
2019-02-12T06:56:24.339Z,100
2019-02-12T06:57:26.458Z,100
2019-02-12T06:58:28.562Z,100
2019-02-12T06:59:30.691Z,100
2019-02-12T07:00:32.801Z,100
2019-02-12T07:01:34.938Z,100
2019-02-12T07:02:37.051Z,100
2019-02-12T07:03:39.466Z,100
2019-02-12T07:04:41.568Z,100
2019-02-12T07:05:44.083Z,100
2019-02-12T07:06:46.611Z,100
2019-02-12T07:07:49.094Z,100
2019-02-12T07:08:51.547Z,100
2019-02-12T07:09:54.117Z,100
2019-02-12T07:10:56.232Z,100
2019-02-12T07:11:58.375Z,100
2019-02-12T07:13:03.174Z,100
2019-02-12T07:14:06.574Z,100
2019-02-12T07:15:08.740Z,100
2019-02-12T07:16:11.145Z,100
2019-02-12T07:17:13.254Z,99
2019-02-12T07:18:15.371Z,100
2019-02-12T07:19:17.499Z,100
2019-02-12T07:20:19.982Z,100
2019-02-12T07:21:22.101Z,100
2019-02-12T07:22:24.995Z,100
2019-02-12T07:23:27.706Z,100
2019-02-12T07:24:30.472Z,100
2019-02-12T07:25:32.578Z,100
2019-02-12T07:26:35.673Z,100
2019-02-12T07:27:37.773Z,100
2019-02-12T07:28:39.949Z,100
2019-02-12T07:29:42.744Z,100
2019-02-12T07:30:45.137Z,100
2019-02-12T07:31:47.256Z,100
2019-02-12T07:32:49.353Z,100
2019-02-12T07:33:52.275Z,100
2019-02-12T07:34:54.410Z,99
2019-02-12T07:35:56.812Z,99
2019-02-12T07:36:59.043Z,99
2019-02-12T07:38:01.482Z,98
2019-02-12T07:39:03.591Z,98
2019-02-12T07:40:05.702Z,98
2019-02-12T07:41:08.131Z,97
2019-02-12T07:42:11.933Z,97
2019-02-12T07:43:14.058Z,97
2019-02-12T07:44:16.181Z,96
2019-02-12T07:45:18.659Z,96
2019-02-12T07:46:20.766Z,95
2019-02-12T07:47:23.195Z,95
2019-02-12T07:48:26.564Z,94
2019-02-12T07:49:28.969Z,94
2019-02-12T07:50:31.387Z,93
2019-02-12T07:51:33.835Z,93
2019-02-12T07:52:35.956Z,92
2019-02-12T07:53:38.761Z,92
2019-02-12T07:54:41.155Z,92
2019-02-12T07:55:43.704Z,91
2019-02-12T07:56:46.161Z,91
2019-02-12T07:57:48.550Z,90
2019-02-12T07:58:50.664Z,89
2019-02-12T07:59:54.155Z,89
2019-02-12T08:00:56.690Z,89
2019-02-12T08:01:59.077Z,88
2019-02-12T08:03:01.500Z,89
2019-02-12T08:04:03.618Z,89
2019-02-12T08:05:06.123Z,88
2019-02-12T08:06:08.930Z,87
2019-02-12T08:07:11.069Z,86
2019-02-12T08:08:13.481Z,85
2019-02-12T08:09:16.300Z,85
2019-02-12T08:10:19.094Z,85
2019-02-12T08:11:21.226Z,86
2019-02-12T08:12:23.656Z,86
2019-02-12T08:13:26.356Z,85
2019-02-12T08:14:28.492Z,84
2019-02-12T08:15:30.997Z,83
2019-02-12T08:16:33.713Z,82
2019-02-12T08:17:36.254Z,83
2019-02-12T08:18:38.778Z,84
2019-02-12T08:19:41.603Z,82
2019-02-12T08:20:44.696Z,82
2019-02-12T08:21:47.376Z,81
2019-02-12T08:22:50.361Z,80
2019-02-12T08:23:52.497Z,81
2019-02-12T08:24:54.629Z,80
2019-02-12T08:25:56.736Z,79
2019-02-12T08:26:58.892Z,79
2019-02-12T08:28:02.015Z,78
2019-02-12T08:29:04.922Z,78
2019-02-12T08:30:07.358Z,78
2019-02-12T08:31:09.486Z,78
2019-02-12T08:32:12.005Z,77
2019-02-12T08:33:14.420Z,77
2019-02-12T08:34:16.844Z,76
2019-02-12T08:35:19.541Z,76
2019-02-12T08:36:22.385Z,75
2019-02-12T08:37:24.925Z,75
2019-02-12T08:38:27.351Z,75
2019-02-12T08:39:29.778Z,76
2019-02-12T08:40:31.893Z,75
2019-02-12T08:41:34.023Z,75
2019-02-12T08:42:36.877Z,74
2019-02-12T08:43:42.278Z,74
2019-02-12T08:44:46.389Z,75
2019-02-12T08:45:49.085Z,74
2019-02-12T08:46:53.654Z,75
2019-02-12T08:47:56.122Z,73
2019-02-12T08:48:58.622Z,74
2019-02-12T08:50:01.436Z,72
2019-02-12T08:51:04.869Z,71
2019-02-12T08:52:07.030Z,72
2019-02-12T08:53:09.521Z,71
2019-02-12T08:54:11.659Z,71
2019-02-12T08:55:13.786Z,69
2019-02-12T08:56:15.917Z,71
2019-02-12T08:57:18.373Z,70
2019-02-12T08:58:20.890Z,70
2019-02-12T08:59:23.289Z,69
2019-02-12T09:00:26.135Z,69
2019-02-12T09:01:28.849Z,70
2019-02-12T09:02:31.016Z,69
2019-02-12T09:03:33.598Z,70
2019-02-12T09:04:36.105Z,69
2019-02-12T09:05:38.536Z,69
2019-02-12T09:06:40.658Z,68
2019-02-12T09:07:43.138Z,69
2019-02-12T09:08:45.255Z,68
2019-02-12T09:09:47.781Z,67
2019-02-12T09:10:50.209Z,67
2019-02-12T09:11:52.322Z,66
2019-02-12T09:12:55.142Z,66
2019-02-12T09:13:57.935Z,66
2019-02-12T09:15:01.066Z,66
2019-02-12T09:16:04.405Z,66
2019-02-12T09:17:06.852Z,66
2019-02-12T09:18:08.969Z,66
2019-02-12T09:19:11.131Z,66
2019-02-12T09:20:13.847Z,66
2019-02-12T09:21:16.258Z,66
2019-02-12T09:22:18.676Z,65
2019-02-12T09:23:20.805Z,66
2019-02-12T09:24:22.949Z,65
2019-02-12T09:25:25.361Z,65
2019-02-12T09:26:27.474Z,64
2019-02-12T09:27:29.605Z,64
2019-02-12T09:28:31.731Z,64
2019-02-12T09:29:34.459Z,64
2019-02-12T09:30:37.707Z,63
2019-02-12T09:31:40.505Z,63
2019-02-12T09:32:43.041Z,63
2019-02-12T09:33:45.806Z,63
2019-02-12T09:34:47.963Z,64
2019-02-12T09:35:50.766Z,62
2019-02-12T09:36:53.282Z,63
2019-02-12T09:37:55.391Z,63
2019-02-12T09:38:57.525Z,63
2019-02-12T09:39:59.645Z,62
2019-02-12T09:41:01.817Z,62
2019-02-12T09:42:04.227Z,62
2019-02-12T09:43:06.370Z,61
2019-02-12T09:44:08.804Z,60
2019-02-12T09:45:11.206Z,61
2019-02-12T09:46:13.943Z,62
2019-02-12T09:47:16.351Z,61
2019-02-12T09:48:18.548Z,61
2019-02-12T09:49:20.986Z,62
2019-02-12T09:50:23.518Z,60
2019-02-12T09:51:25.645Z,61
2019-02-12T09:52:27.787Z,60
2019-02-12T09:53:29.965Z,61
2019-02-12T09:54:32.080Z,61
2019-02-12T09:55:34.731Z,61
2019-02-12T09:56:36.853Z,62
2019-02-12T09:57:39.538Z,61
2019-02-12T09:58:41.711Z,61
2019-02-12T09:59:43.915Z,61
2019-02-12T10:00:46.356Z,62
2019-02-12T10:01:48.813Z,60
2019-02-12T10:02:51.249Z,59
2019-02-12T10:03:53.770Z,59
2019-02-12T10:04:56.474Z,60
2019-02-12T10:05:58.634Z,59
2019-02-12T10:07:01.665Z,60
2019-02-12T10:08:04.780Z,61
2019-02-12T10:09:06.916Z,61
2019-02-12T10:10:09.608Z,59
2019-02-12T10:11:11.757Z,59
2019-02-12T10:12:13.883Z,58
2019-02-12T10:13:16.017Z,59
2019-02-12T10:14:18.131Z,60
2019-02-12T10:15:20.301Z,59
2019-02-12T10:16:23.401Z,59
2019-02-12T10:17:25.810Z,59
2019-02-12T10:18:28.252Z,58
2019-02-12T10:19:30.371Z,58
2019-02-12T10:20:32.515Z,57
2019-02-12T10:21:34.798Z,57
2019-02-12T10:22:36.935Z,57
2019-02-12T10:23:39.113Z,57
2019-02-12T10:24:41.994Z,58
2019-02-12T10:25:44.421Z,61
2019-02-12T10:26:46.869Z,57
2019-02-12T10:27:49.401Z,57
2019-02-12T10:28:51.531Z,56
2019-02-12T10:29:53.675Z,57
2019-02-12T10:30:56.107Z,58
2019-02-12T10:31:58.538Z,56
2019-02-12T10:33:10.088Z,56
2019-02-12T10:34:12.595Z,57
2019-02-12T10:35:15.035Z,57
2019-02-12T10:36:17.854Z,57
2019-02-12T10:37:19.988Z,57
2019-02-12T10:38:22.121Z,57
2019-02-12T10:39:24.654Z,58
2019-02-12T10:40:28.044Z,57
2019-02-12T10:41:30.774Z,56
2019-02-12T10:42:33.524Z,56
2019-02-12T10:43:35.956Z,56
2019-02-12T10:44:38.403Z,55
2019-02-12T10:45:40.528Z,56
2019-02-12T10:46:42.654Z,56
2019-02-12T10:47:45.058Z,57
2019-02-12T10:48:47.209Z,55
2019-02-12T10:49:50.078Z,55
2019-02-12T10:50:52.510Z,55
2019-02-12T10:51:54.652Z,58
2019-02-12T10:52:57.073Z,57
2019-02-12T10:53:59.533Z,56
2019-02-12T10:55:01.662Z,56
2019-02-12T10:56:05.590Z,55
2019-02-12T10:57:07.998Z,55
2019-02-12T10:58:10.144Z,54
2019-02-12T10:59:14.946Z,54
2019-02-12T11:00:17.070Z,54
2019-02-12T11:01:19.219Z,53
2019-02-12T11:02:21.332Z,53
2019-02-12T11:03:23.461Z,53
2019-02-12T11:04:25.618Z,53
2019-02-12T11:05:27.752Z,55
2019-02-12T11:06:30.265Z,55
2019-02-12T11:07:32.406Z,55
2019-02-12T11:08:34.523Z,54
2019-02-12T11:09:36.657Z,55
2019-02-12T11:10:38.792Z,53
2019-02-12T11:11:41.298Z,52
2019-02-12T11:12:43.439Z,54
2019-02-12T11:13:45.592Z,54
2019-02-12T11:14:47.720Z,53
2019-02-12T11:15:49.853Z,56
2019-02-12T11:16:51.989Z,52
2019-02-12T11:17:54.097Z,53
2019-02-12T11:18:56.618Z,54
2019-02-12T11:19:58.747Z,51
2019-02-12T11:21:01.169Z,53
2019-02-12T11:22:03.288Z,51
2019-02-12T11:23:05.424Z,52
2019-02-12T11:24:07.550Z,52
2019-02-12T11:25:09.672Z,52
2019-02-12T11:26:11.829Z,52
2019-02-12T11:27:13.962Z,51
2019-02-12T11:28:16.090Z,51
2019-02-12T11:29:18.215Z,51
2019-02-12T11:30:20.372Z,51
2019-02-12T11:31:22.769Z,53
2019-02-12T11:32:24.909Z,53
2019-02-12T11:33:27.322Z,53
2019-02-12T11:34:29.453Z,54
2019-02-12T11:35:31.890Z,52
2019-02-12T11:36:34.027Z,52
2019-02-12T11:37:36.149Z,51
2019-02-12T11:38:38.278Z,52
2019-02-12T11:39:40.412Z,51
2019-02-12T11:40:42.530Z,51
2019-02-12T11:41:44.682Z,50
2019-02-12T11:42:46.810Z,50
2019-02-12T11:43:49.252Z,51
2019-02-12T11:44:51.377Z,51
2019-02-12T11:45:53.522Z,50
2019-02-12T11:46:55.637Z,49
2019-02-12T11:47:58.167Z,49
2019-02-12T11:49:00.621Z,50
2019-02-12T11:50:02.748Z,49
2019-02-12T11:51:04.911Z,51
2019-02-12T11:52:07.060Z,52
2019-02-12T11:53:09.487Z,52
2019-02-12T11:54:11.617Z,52
2019-02-12T11:55:13.743Z,51
2019-02-12T11:56:15.891Z,49
2019-02-12T11:57:18.025Z,49
2019-02-12T11:58:20.471Z,51
2019-02-12T11:59:22.622Z,51
2019-02-12T12:00:24.745Z,49
2019-02-12T12:01:26.878Z,50
2019-02-12T12:02:28.999Z,50
2019-02-12T12:03:31.817Z,50
2019-02-12T12:04:34.326Z,50
2019-02-12T12:05:36.462Z,52
2019-02-12T12:06:38.600Z,51
2019-02-12T12:07:40.718Z,51
2019-02-12T12:08:42.862Z,50
2019-02-12T12:09:44.999Z,49
2019-02-12T12:10:47.115Z,50
2019-02-12T12:11:49.249Z,49
2019-02-12T12:12:51.406Z,49
2019-02-12T12:13:53.537Z,49
2019-02-12T12:14:55.721Z,50
2019-02-12T12:15:58.135Z,49
2019-02-12T12:17:00.255Z,48
2019-02-12T12:18:02.794Z,49
2019-02-12T12:19:04.943Z,48
2019-02-12T12:20:07.052Z,48
2019-02-12T12:21:09.190Z,47
2019-02-12T12:22:11.325Z,47
2019-02-12T12:23:13.448Z,46
2019-02-12T12:24:15.594Z,49
2019-02-12T12:25:17.719Z,49
2019-02-12T12:26:19.848Z,50
2019-02-12T12:27:21.973Z,48
2019-02-12T12:28:24.117Z,49
2019-02-12T12:29:26.231Z,48
2019-02-12T12:30:28.640Z,49
2019-02-12T12:31:30.774Z,49
2019-02-12T12:32:32.889Z,49
2019-02-12T12:33:35.027Z,48
2019-02-12T12:34:37.155Z,48
2019-02-12T12:35:39.294Z,48
2019-02-12T12:36:41.418Z,48
2019-02-12T12:37:43.844Z,49
2019-02-12T12:38:45.965Z,48
2019-02-12T12:39:48.083Z,48
2019-02-12T12:40:50.666Z,49
2019-02-12T12:41:52.782Z,48
2019-02-12T12:42:54.923Z,50
2019-02-12T12:43:57.100Z,51
2019-02-12T12:44:59.645Z,49
2019-02-12T12:46:02.212Z,49
2019-02-12T12:47:04.357Z,50
2019-02-12T12:48:06.791Z,50
2019-02-12T12:49:08.944Z,50
2019-02-12T12:50:11.102Z,50
2019-02-12T12:51:13.510Z,50
2019-02-12T12:52:15.815Z,50
2019-02-12T12:53:17.960Z,50
2019-02-12T12:54:20.377Z,50
2019-02-12T12:55:22.831Z,50
2019-02-12T12:56:24.983Z,49
2019-02-12T12:57:27.142Z,49
2019-02-12T12:58:29.305Z,49
2019-02-12T12:59:31.466Z,48
2019-02-12T13:00:34.022Z,49
2019-02-12T13:01:36.845Z,48
2019-02-12T13:02:39.018Z,47
2019-02-12T13:03:41.163Z,49
2019-02-12T13:04:43.577Z,49
2019-02-12T13:05:45.719Z,49
2019-02-12T13:06:47.839Z,48
2019-02-12T13:07:49.977Z,49
2019-02-12T13:08:52.103Z,49
2019-02-12T13:09:54.244Z,49
2019-02-12T13:10:56.375Z,48
2019-02-12T13:11:58.502Z,50
2019-02-12T13:13:00.643Z,49
2019-02-12T13:14:03.190Z,51
2019-02-12T13:15:05.324Z,49
2019-02-12T13:16:07.849Z,48
2019-02-12T13:17:11.731Z,47
2019-02-12T13:18:14.149Z,47
2019-02-12T13:19:16.272Z,48
2019-02-12T13:20:18.438Z,48
2019-02-12T13:21:21.131Z,48
2019-02-12T13:22:23.257Z,47
2019-02-12T13:23:25.397Z,48
2019-02-12T13:24:27.519Z,48
2019-02-12T13:25:29.647Z,49
2019-02-12T13:26:31.796Z,49
2019-02-12T13:27:34.212Z,48
2019-02-12T13:28:36.340Z,48
2019-02-12T13:29:38.473Z,48
2019-02-12T13:30:40.605Z,50
2019-02-12T13:31:42.743Z,50
2019-02-12T13:32:44.873Z,52
2019-02-12T13:33:47.378Z,50
2019-02-12T13:34:49.493Z,51
2019-02-12T13:35:51.915Z,51
2019-02-12T13:36:54.038Z,53
2019-02-12T13:37:56.591Z,52
2019-02-12T13:38:58.758Z,52
2019-02-12T13:40:01.188Z,52
2019-02-12T13:41:03.598Z,52
2019-02-12T13:42:06.019Z,53
2019-02-12T13:43:08.157Z,53
2019-02-12T13:44:10.561Z,53
2019-02-12T13:45:13.255Z,53
2019-02-12T13:46:15.442Z,53
2019-02-12T13:47:17.560Z,54
2019-02-12T13:48:19.688Z,55
2019-02-12T13:49:21.815Z,55
2019-02-12T13:50:24.340Z,54
2019-02-12T13:51:26.467Z,55
2019-02-12T13:52:28.599Z,56
2019-02-12T13:53:31.014Z,56
2019-02-12T13:54:33.174Z,55
2019-02-12T13:55:35.313Z,55
2019-02-12T13:56:37.448Z,54
2019-02-12T13:57:39.576Z,54
2019-02-12T13:58:41.707Z,56
2019-02-12T13:59:43.895Z,55
2019-02-12T14:00:46.031Z,54
2019-02-12T14:01:48.153Z,55
2019-02-12T14:02:50.296Z,55
2019-02-12T14:03:53.237Z,55
2019-02-12T14:04:55.660Z,54
2019-02-12T14:05:58.383Z,55
2019-02-12T14:07:01.333Z,55
2019-02-12T14:08:05.423Z,55
2019-02-12T14:09:07.910Z,55
2019-02-12T14:10:10.468Z,55
2019-02-12T14:11:12.881Z,56
2019-02-12T14:12:16.737Z,56
2019-02-12T14:13:18.846Z,56
2019-02-12T14:14:20.972Z,57
2019-02-12T14:15:23.373Z,57
2019-02-12T14:16:25.514Z,57
2019-02-12T14:17:27.623Z,56
2019-02-12T14:18:29.771Z,56
2019-02-12T14:19:31.946Z,56
2019-02-12T14:20:34.445Z,56
2019-02-12T14:21:36.578Z,57
2019-02-12T14:22:38.988Z,58
2019-02-12T14:23:41.265Z,58
2019-02-12T14:24:43.799Z,57
2019-02-12T14:25:45.948Z,58
2019-02-12T14:26:48.073Z,60
2019-02-12T14:27:50.193Z,58
2019-02-12T14:28:52.321Z,58
2019-02-12T14:29:54.449Z,58
2019-02-12T14:30:56.980Z,58
2019-02-12T14:31:59.114Z,59
2019-02-12T14:33:01.273Z,59
2019-02-12T14:34:03.694Z,59
2019-02-12T14:35:06.155Z,59
2019-02-12T14:36:08.694Z,59
2019-02-12T14:37:11.199Z,59
2019-02-12T14:38:13.615Z,59
2019-02-12T14:39:16.420Z,59
2019-02-12T14:40:18.578Z,58
2019-02-12T14:41:20.706Z,59
2019-02-12T14:42:22.894Z,58
2019-02-12T14:43:25.030Z,60
2019-02-12T14:44:27.153Z,60
2019-02-12T14:45:29.304Z,60
2019-02-12T14:46:31.437Z,59